sensor_id;sensor_type;location;lat;lon;timestamp;P1;durP1;ratioP1;P2;durP2;ratioP2
4833;SDS011;12895;51.064;7.028;2023-08-30T00:01:50;10.83;;;9.90;;
4833;SDS011;12895;51.064;7.028;2023-08-30T00:04:35;12.83;;;11.83;;
4833;SDS011;12895;51.064;7.028;2023-08-30T00:07:22;12.67;;;11.57;;
4833;SDS011;12895;51.064;7.028;2023-08-30T00:10:08;12.20;;;11.30;;
4833;SDS011;12895;51.064;7.028;2023-08-30T00:12:55;12.30;;;11.20;;
4833;SDS011;12895;51.064;7.028;2023-08-30T00:15:40;12.87;;;11.87;;
4833;SDS011;12895;51.064;7.028;2023-08-30T00:18:26;14.23;;;13.23;;
4833;SDS011;12895;51.064;7.028;2023-08-30T00:21:11;13.10;;;11.83;;
4833;SDS011;12895;51.064;7.028;2023-08-30T00:23:58;12.20;;;11.13;;
4833;SDS011;12895;51.064;7.028;2023-08-30T00:26:44;11.57;;;10.77;;
4833;SDS011;12895;51.064;7.028;2023-08-30T00:29:29;12.27;;;11.37;;
4833;SDS011;12895;51.064;7.028;2023-08-30T00:32:15;13.27;;;12.10;;
4833;SDS011;12895;51.064;7.028;2023-08-30T00:35:00;13.07;;;11.97;;
4833;SDS011;12895;51.064;7.028;2023-08-30T00:37:46;12.30;;;11.27;;
4833;SDS011;12895;51.064;7.028;2023-08-30T00:40:38;13.10;;;12.00;;
4833;SDS011;12895;51.064;7.028;2023-08-30T00:43:24;12.97;;;11.80;;
4833;SDS011;12895;51.064;7.028;2023-08-30T00:46:09;13.30;;;12.17;;
4833;SDS011;12895;51.064;7.028;2023-08-30T00:48:55;13.23;;;12.13;;
4833;SDS011;12895;51.064;7.028;2023-08-30T00:51:42;13.27;;;12.20;;
4833;SDS011;12895;51.064;7.028;2023-08-30T00:54:28;14.00;;;12.87;;
4833;SDS011;12895;51.064;7.028;2023-08-30T00:57:15;13.40;;;12.30;;
4833;SDS011;12895;51.064;7.028;2023-08-30T01:00:02;14.37;;;13.10;;
4833;SDS011;12895;51.064;7.028;2023-08-30T01:02:49;14.70;;;12.30;;
4833;SDS011;12895;51.064;7.028;2023-08-30T01:05:35;13.23;;;12.23;;
4833;SDS011;12895;51.064;7.028;2023-08-30T01:08:21;14.27;;;13.17;;
4833;SDS011;12895;51.064;7.028;2023-08-30T01:11:09;15.57;;;14.20;;
4833;SDS011;12895;51.064;7.028;2023-08-30T01:14:00;15.57;;;14.27;;
4833;SDS011;12895;51.064;7.028;2023-08-30T01:16:50;15.70;;;14.40;;
4833;SDS011;12895;51.064;7.028;2023-08-30T01:19:39;16.90;;;15.37;;
4833;SDS011;12895;51.064;7.028;2023-08-30T01:22:39;17.80;;;16.33;;
4833;SDS011;12895;51.064;7.028;2023-08-30T01:25:31;17.63;;;16.23;;
4833;SDS011;12895;51.064;7.028;2023-08-30T01:28:24;16.40;;;15.10;;
4833;SDS011;12895;51.064;7.028;2023-08-30T01:31:11;17.90;;;16.40;;
4833;SDS011;12895;51.064;7.028;2023-08-30T01:33:58;17.80;;;16.40;;
4833;SDS011;12895;51.064;7.028;2023-08-30T01:36:47;18.70;;;17.10;;
4833;SDS011;12895;51.064;7.028;2023-08-30T01:39:34;17.60;;;16.10;;
4833;SDS011;12895;51.064;7.028;2023-08-30T01:42:21;17.73;;;16.10;;
4833;SDS011;12895;51.064;7.028;2023-08-30T01:45:08;18.67;;;16.80;;
4833;SDS011;12895;51.064;7.028;2023-08-30T01:47:58;17.10;;;15.70;;
4833;SDS011;12895;51.064;7.028;2023-08-30T01:50:44;19.50;;;17.80;;
4833;SDS011;12895;51.064;7.028;2023-08-30T01:53:30;18.90;;;17.10;;
4833;SDS011;12895;51.064;7.028;2023-08-30T01:56:17;18.90;;;17.40;;
4833;SDS011;12895;51.064;7.028;2023-08-30T01:59:02;18.27;;;16.47;;
4833;SDS011;12895;51.064;7.028;2023-08-30T02:01:49;18.37;;;16.77;;
4833;SDS011;12895;51.064;7.028;2023-08-30T02:04:35;18.63;;;17.13;;
4833;SDS011;12895;51.064;7.028;2023-08-30T02:07:21;18.07;;;16.50;;
4833;SDS011;12895;51.064;7.028;2023-08-30T02:10:10;19.00;;;17.30;;
4833;SDS011;12895;51.064;7.028;2023-08-30T02:13:03;19.73;;;18.03;;
4833;SDS011;12895;51.064;7.028;2023-08-30T02:15:50;19.00;;;17.30;;
4833;SDS011;12895;51.064;7.028;2023-08-30T02:18:39;19.60;;;18.03;;
4833;SDS011;12895;51.064;7.028;2023-08-30T02:21:26;20.67;;;18.90;;
4833;SDS011;12895;51.064;7.028;2023-08-30T02:24:12;19.03;;;17.33;;
4833;SDS011;12895;51.064;7.028;2023-08-30T02:26:57;21.30;;;19.50;;
4833;SDS011;12895;51.064;7.028;2023-08-30T02:29:44;21.03;;;19.13;;
4833;SDS011;12895;51.064;7.028;2023-08-30T02:32:29;21.37;;;19.47;;
4833;SDS011;12895;51.064;7.028;2023-08-30T02:35:16;21.70;;;19.80;;
4833;SDS011;12895;51.064;7.028;2023-08-30T02:38:01;21.73;;;19.77;;
4833;SDS011;12895;51.064;7.028;2023-08-30T02:40:49;22.30;;;20.50;;
4833;SDS011;12895;51.064;7.028;2023-08-30T02:43:34;22.90;;;20.87;;
4833;SDS011;12895;51.064;7.028;2023-08-30T02:46:21;24.57;;;22.03;;
4833;SDS011;12895;51.064;7.028;2023-08-30T02:49:07;24.17;;;22.00;;
4833;SDS011;12895;51.064;7.028;2023-08-30T02:51:54;23.77;;;21.27;;
4833;SDS011;12895;51.064;7.028;2023-08-30T02:54:40;25.07;;;22.57;;
4833;SDS011;12895;51.064;7.028;2023-08-30T02:57:25;24.57;;;22.10;;
4833;SDS011;12895;51.064;7.028;2023-08-30T03:00:11;25.30;;;22.90;;
4833;SDS011;12895;51.064;7.028;2023-08-30T03:02:58;23.33;;;21.27;;
4833;SDS011;12895;51.064;7.028;2023-08-30T03:05:43;23.83;;;21.73;;
4833;SDS011;12895;51.064;7.028;2023-08-30T03:08:31;25.67;;;23.07;;
4833;SDS011;12895;51.064;7.028;2023-08-30T03:11:17;26.63;;;24.20;;
4833;SDS011;12895;51.064;7.028;2023-08-30T03:14:07;26.37;;;23.77;;
4833;SDS011;12895;51.064;7.028;2023-08-30T03:16:52;27.10;;;24.47;;
4833;SDS011;12895;51.064;7.028;2023-08-30T03:19:38;28.20;;;25.20;;
4833;SDS011;12895;51.064;7.028;2023-08-30T03:22:23;27.53;;;25.03;;
4833;SDS011;12895;51.064;7.028;2023-08-30T03:25:10;29.40;;;26.80;;
4833;SDS011;12895;51.064;7.028;2023-08-30T03:27:57;29.20;;;26.30;;
4833;SDS011;12895;51.064;7.028;2023-08-30T03:30:42;29.77;;;26.90;;
4833;SDS011;12895;51.064;7.028;2023-08-30T03:33:28;35.53;;;27.40;;
4833;SDS011;12895;51.064;7.028;2023-08-30T03:36:14;31.37;;;28.20;;
4833;SDS011;12895;51.064;7.028;2023-08-30T03:39:00;30.23;;;27.27;;
4833;SDS011;12895;51.064;7.028;2023-08-30T03:41:48;32.73;;;29.40;;
4833;SDS011;12895;51.064;7.028;2023-08-30T03:44:33;31.67;;;28.53;;
4833;SDS011;12895;51.064;7.028;2023-08-30T03:47:20;31.43;;;28.40;;
4833;SDS011;12895;51.064;7.028;2023-08-30T03:50:06;33.30;;;30.00;;
4833;SDS011;12895;51.064;7.028;2023-08-30T03:52:53;33.07;;;29.77;;
4833;SDS011;12895;51.064;7.028;2023-08-30T03:55:38;32.53;;;29.27;;
4833;SDS011;12895;51.064;7.028;2023-08-30T03:58:25;33.50;;;30.10;;
4833;SDS011;12895;51.064;7.028;2023-08-30T04:01:10;33.93;;;30.53;;
4833;SDS011;12895;51.064;7.028;2023-08-30T04:03:55;32.27;;;28.83;;
4833;SDS011;12895;51.064;7.028;2023-08-30T04:06:41;34.27;;;30.67;;
4833;SDS011;12895;51.064;7.028;2023-08-30T04:09:26;32.70;;;29.30;;
4833;SDS011;12895;51.064;7.028;2023-08-30T04:12:11;33.87;;;30.40;;
4833;SDS011;12895;51.064;7.028;2023-08-30T04:14:58;31.97;;;28.83;;
4833;SDS011;12895;51.064;7.028;2023-08-30T04:17:43;33.23;;;30.10;;
4833;SDS011;12895;51.064;7.028;2023-08-30T04:20:29;33.57;;;30.30;;
4833;SDS011;12895;51.064;7.028;2023-08-30T04:23:14;33.77;;;30.57;;
4833;SDS011;12895;51.064;7.028;2023-08-30T04:26:01;31.73;;;28.63;;
4833;SDS011;12895;51.064;7.028;2023-08-30T04:28:46;31.40;;;28.40;;
4833;SDS011;12895;51.064;7.028;2023-08-30T04:31:33;31.30;;;28.00;;
4833;SDS011;12895;51.064;7.028;2023-08-30T04:34:22;32.80;;;29.50;;
4833;SDS011;12895;51.064;7.028;2023-08-30T04:37:07;32.73;;;29.30;;
4833;SDS011;12895;51.064;7.028;2023-08-30T04:39:53;32.77;;;29.67;;
4833;SDS011;12895;51.064;7.028;2023-08-30T04:42:39;32.60;;;29.50;;
4833;SDS011;12895;51.064;7.028;2023-08-30T04:45:24;32.97;;;29.70;;
4833;SDS011;12895;51.064;7.028;2023-08-30T04:48:11;33.30;;;30.07;;
4833;SDS011;12895;51.064;7.028;2023-08-30T04:51:00;32.40;;;29.30;;
4833;SDS011;12895;51.064;7.028;2023-08-30T04:53:46;32.30;;;29.27;;
4833;SDS011;12895;51.064;7.028;2023-08-30T04:56:32;35.70;;;32.10;;
4833;SDS011;12895;51.064;7.028;2023-08-30T04:59:17;34.60;;;31.00;;
4833;SDS011;12895;51.064;7.028;2023-08-30T05:02:05;33.40;;;30.10;;
4833;SDS011;12895;51.064;7.028;2023-08-30T05:04:56;34.43;;;31.03;;
4833;SDS011;12895;51.064;7.028;2023-08-30T05:07:41;32.33;;;29.40;;
4833;SDS011;12895;51.064;7.028;2023-08-30T05:10:27;34.00;;;30.57;;
4833;SDS011;12895;51.064;7.028;2023-08-30T05:13:15;31.10;;;28.07;;
4833;SDS011;12895;51.064;7.028;2023-08-30T05:16:01;31.07;;;27.97;;
4833;SDS011;12895;51.064;7.028;2023-08-30T05:18:46;31.00;;;28.00;;
4833;SDS011;12895;51.064;7.028;2023-08-30T05:25:34;30.43;;;27.37;;
4833;SDS011;12895;51.064;7.028;2023-08-30T05:28:20;30.57;;;27.37;;
4833;SDS011;12895;51.064;7.028;2023-08-30T05:31:05;30.53;;;27.73;;
4833;SDS011;12895;51.064;7.028;2023-08-30T05:34:11;29.23;;;26.43;;
4833;SDS011;12895;51.064;7.028;2023-08-30T05:37:32;31.87;;;28.70;;
4833;SDS011;12895;51.064;7.028;2023-08-30T05:40:36;31.13;;;28.03;;
4833;SDS011;12895;51.064;7.028;2023-08-30T05:43:26;31.07;;;28.10;;
4833;SDS011;12895;51.064;7.028;2023-08-30T05:46:11;30.87;;;27.93;;
4833;SDS011;12895;51.064;7.028;2023-08-30T05:48:59;31.60;;;28.40;;
4833;SDS011;12895;51.064;7.028;2023-08-30T05:51:47;30.57;;;27.60;;
4833;SDS011;12895;51.064;7.028;2023-08-30T05:54:32;31.30;;;28.40;;
4833;SDS011;12895;51.064;7.028;2023-08-30T05:57:20;31.97;;;28.70;;
4833;SDS011;12895;51.064;7.028;2023-08-30T06:00:08;30.60;;;27.77;;
4833;SDS011;12895;51.064;7.028;2023-08-30T06:03:00;28.90;;;26.10;;
4833;SDS011;12895;51.064;7.028;2023-08-30T06:05:46;28.97;;;26.37;;
4833;SDS011;12895;51.064;7.028;2023-08-30T06:08:33;29.23;;;26.13;;
4833;SDS011;12895;51.064;7.028;2023-08-30T06:11:19;28.73;;;25.83;;
4833;SDS011;12895;51.064;7.028;2023-08-30T06:14:05;26.60;;;24.10;;
4833;SDS011;12895;51.064;7.028;2023-08-30T06:16:51;24.33;;;22.07;;
4833;SDS011;12895;51.064;7.028;2023-08-30T06:19:36;24.90;;;22.80;;
4833;SDS011;12895;51.064;7.028;2023-08-30T06:22:21;23.37;;;21.13;;
4833;SDS011;12895;51.064;7.028;2023-08-30T06:25:06;23.40;;;21.40;;
4833;SDS011;12895;51.064;7.028;2023-08-30T06:27:55;22.83;;;20.57;;
4833;SDS011;12895;51.064;7.028;2023-08-30T06:30:44;22.37;;;20.47;;
4833;SDS011;12895;51.064;7.028;2023-08-30T06:33:29;23.70;;;21.30;;
4833;SDS011;12895;51.064;7.028;2023-08-30T06:36:14;21.23;;;19.17;;
4833;SDS011;12895;51.064;7.028;2023-08-30T06:39:01;21.47;;;19.60;;
4833;SDS011;12895;51.064;7.028;2023-08-30T06:41:46;19.17;;;17.57;;
4833;SDS011;12895;51.064;7.028;2023-08-30T06:44:32;19.73;;;18.13;;
4833;SDS011;12895;51.064;7.028;2023-08-30T06:47:18;17.83;;;16.40;;
4833;SDS011;12895;51.064;7.028;2023-08-30T06:50:05;19.50;;;17.80;;
4833;SDS011;12895;51.064;7.028;2023-08-30T06:52:53;18.30;;;16.73;;
4833;SDS011;12895;51.064;7.028;2023-08-30T06:55:38;17.47;;;16.07;;
4833;SDS011;12895;51.064;7.028;2023-08-30T06:58:23;17.13;;;15.43;;
4833;SDS011;12895;51.064;7.028;2023-08-30T07:01:08;17.17;;;15.57;;
4833;SDS011;12895;51.064;7.028;2023-08-30T07:03:55;15.87;;;14.37;;
4833;SDS011;12895;51.064;7.028;2023-08-30T07:06:40;14.90;;;13.70;;
4833;SDS011;12895;51.064;7.028;2023-08-30T07:09:25;13.90;;;12.70;;
4833;SDS011;12895;51.064;7.028;2023-08-30T07:12:13;14.03;;;12.80;;
4833;SDS011;12895;51.064;7.028;2023-08-30T07:14:59;13.50;;;12.50;;
4833;SDS011;12895;51.064;7.028;2023-08-30T07:17:44;12.87;;;11.70;;
4833;SDS011;12895;51.064;7.028;2023-08-30T07:20:31;12.63;;;11.53;;
4833;SDS011;12895;51.064;7.028;2023-08-30T07:23:16;11.50;;;10.70;;
4833;SDS011;12895;51.064;7.028;2023-08-30T07:26:01;12.33;;;11.23;;
4833;SDS011;12895;51.064;7.028;2023-08-30T07:28:47;11.40;;;10.53;;
4833;SDS011;12895;51.064;7.028;2023-08-30T07:31:32;11.33;;;10.10;;
4833;SDS011;12895;51.064;7.028;2023-08-30T07:34:18;10.77;;;9.67;;
4833;SDS011;12895;51.064;7.028;2023-08-30T07:37:04;10.77;;;9.87;;
4833;SDS011;12895;51.064;7.028;2023-08-30T07:39:51;10.70;;;9.80;;
4833;SDS011;12895;51.064;7.028;2023-08-30T07:42:37;13.03;;;11.07;;
4833;SDS011;12895;51.064;7.028;2023-08-30T07:45:25;10.47;;;9.40;;
4833;SDS011;12895;51.064;7.028;2023-08-30T07:48:11;11.60;;;10.70;;
4833;SDS011;12895;51.064;7.028;2023-08-30T07:50:57;11.67;;;10.00;;
4833;SDS011;12895;51.064;7.028;2023-08-30T07:53:44;11.90;;;10.87;;
4833;SDS011;12895;51.064;7.028;2023-08-30T07:56:29;11.17;;;10.20;;
4833;SDS011;12895;51.064;7.028;2023-08-30T07:59:14;9.40;;;8.70;;
4833;SDS011;12895;51.064;7.028;2023-08-30T08:02:00;10.77;;;9.77;;
4833;SDS011;12895;51.064;7.028;2023-08-30T08:04:45;9.30;;;8.50;;
4833;SDS011;12895;51.064;7.028;2023-08-30T08:07:30;9.50;;;8.70;;
4833;SDS011;12895;51.064;7.028;2023-08-30T08:10:18;9.50;;;8.70;;
4833;SDS011;12895;51.064;7.028;2023-08-30T08:13:03;8.73;;;8.10;;
4833;SDS011;12895;51.064;7.028;2023-08-30T08:15:49;9.47;;;8.57;;
4833;SDS011;12895;51.064;7.028;2023-08-30T08:18:34;10.17;;;9.27;;
4833;SDS011;12895;51.064;7.028;2023-08-30T08:21:20;8.87;;;8.17;;
4833;SDS011;12895;51.064;7.028;2023-08-30T08:24:06;9.80;;;8.90;;
4833;SDS011;12895;51.064;7.028;2023-08-30T08:26:52;9.00;;;8.30;;
4833;SDS011;12895;51.064;7.028;2023-08-30T08:29:38;8.80;;;7.73;;
4833;SDS011;12895;51.064;7.028;2023-08-30T08:32:23;8.23;;;7.60;;
4833;SDS011;12895;51.064;7.028;2023-08-30T08:35:09;8.57;;;7.77;;
4833;SDS011;12895;51.064;7.028;2023-08-30T08:37:54;8.00;;;7.20;;
4833;SDS011;12895;51.064;7.028;2023-08-30T08:44:32;7.83;;;6.37;;
4833;SDS011;12895;51.064;7.028;2023-08-30T08:47:20;7.47;;;6.63;;
4833;SDS011;12895;51.064;7.028;2023-08-30T08:50:06;6.47;;;5.80;;
4833;SDS011;12895;51.064;7.028;2023-08-30T08:52:53;6.50;;;6.00;;
4833;SDS011;12895;51.064;7.028;2023-08-30T08:55:38;6.43;;;5.93;;
4833;SDS011;12895;51.064;7.028;2023-08-30T08:58:24;7.37;;;6.77;;
4833;SDS011;12895;51.064;7.028;2023-08-30T09:01:12;6.63;;;5.90;;
4833;SDS011;12895;51.064;7.028;2023-08-30T09:03:59;6.30;;;5.80;;
4833;SDS011;12895;51.064;7.028;2023-08-30T09:06:44;7.63;;;6.30;;
4833;SDS011;12895;51.064;7.028;2023-08-30T09:09:31;6.03;;;5.53;;
4833;SDS011;12895;51.064;7.028;2023-08-30T09:12:16;6.10;;;5.43;;
4833;SDS011;12895;51.064;7.028;2023-08-30T09:15:01;8.07;;;5.97;;
4833;SDS011;12895;51.064;7.028;2023-08-30T09:17:49;7.60;;;5.37;;
4833;SDS011;12895;51.064;7.028;2023-08-30T09:20:34;6.63;;;6.00;;
4833;SDS011;12895;51.064;7.028;2023-08-30T09:23:20;10.37;;;6.07;;
4833;SDS011;12895;51.064;7.028;2023-08-30T09:26:08;6.53;;;6.03;;
4833;SDS011;12895;51.064;7.028;2023-08-30T09:28:54;6.90;;;5.00;;
4833;SDS011;12895;51.064;7.028;2023-08-30T09:31:39;4.53;;;4.10;;
4833;SDS011;12895;51.064;7.028;2023-08-30T09:34:26;5.17;;;4.30;;
4833;SDS011;12895;51.064;7.028;2023-08-30T09:37:18;3.70;;;3.33;;
4833;SDS011;12895;51.064;7.028;2023-08-30T09:40:05;5.47;;;4.43;;
4833;SDS011;12895;51.064;7.028;2023-08-30T09:42:51;3.90;;;3.60;;
4833;SDS011;12895;51.064;7.028;2023-08-30T09:45:36;5.73;;;4.07;;
4833;SDS011;12895;51.064;7.028;2023-08-30T09:48:22;5.13;;;3.97;;
4833;SDS011;12895;51.064;7.028;2023-08-30T09:51:09;5.57;;;3.57;;
4833;SDS011;12895;51.064;7.028;2023-08-30T09:53:57;4.80;;;3.83;;
4833;SDS011;12895;51.064;7.028;2023-08-30T09:56:45;5.10;;;4.20;;
4833;SDS011;12895;51.064;7.028;2023-08-30T09:59:31;7.07;;;4.10;;
4833;SDS011;12895;51.064;7.028;2023-08-30T10:02:17;4.67;;;4.07;;
4833;SDS011;12895;51.064;7.028;2023-08-30T10:05:03;4.57;;;4.20;;
4833;SDS011;12895;51.064;7.028;2023-08-30T10:07:50;3.67;;;3.33;;
4833;SDS011;12895;51.064;7.028;2023-08-30T10:10:37;5.73;;;4.30;;
4833;SDS011;12895;51.064;7.028;2023-08-30T10:13:24;4.10;;;3.80;;
4833;SDS011;12895;51.064;7.028;2023-08-30T10:16:10;4.30;;;3.70;;
4833;SDS011;12895;51.064;7.028;2023-08-30T10:19:01;5.27;;;4.87;;
4833;SDS011;12895;51.064;7.028;2023-08-30T10:21:48;6.20;;;3.93;;
4833;SDS011;12895;51.064;7.028;2023-08-30T10:24:41;6.23;;;3.67;;
4833;SDS011;12895;51.064;7.028;2023-08-30T10:27:29;4.17;;;3.40;;
4833;SDS011;12895;51.064;7.028;2023-08-30T10:30:16;4.20;;;3.80;;
4833;SDS011;12895;51.064;7.028;2023-08-30T10:33:11;5.47;;;4.60;;
4833;SDS011;12895;51.064;7.028;2023-08-30T10:36:02;5.03;;;4.07;;
4833;SDS011;12895;51.064;7.028;2023-08-30T10:38:50;4.07;;;3.67;;
4833;SDS011;12895;51.064;7.028;2023-08-30T10:41:37;4.23;;;3.63;;
4833;SDS011;12895;51.064;7.028;2023-08-30T10:44:23;5.67;;;4.00;;
4833;SDS011;12895;51.064;7.028;2023-08-30T10:47:09;6.03;;;4.93;;
4833;SDS011;12895;51.064;7.028;2023-08-30T10:50:04;4.97;;;4.57;;
4833;SDS011;12895;51.064;7.028;2023-08-30T10:52:54;4.90;;;4.37;;
4833;SDS011;12895;51.064;7.028;2023-08-30T10:55:40;5.10;;;4.77;;
4833;SDS011;12895;51.064;7.028;2023-08-30T10:58:26;4.33;;;4.03;;
4833;SDS011;12895;51.064;7.028;2023-08-30T11:01:24;5.30;;;4.90;;
4833;SDS011;12895;51.064;7.028;2023-08-30T11:04:09;5.03;;;4.53;;
4833;SDS011;12895;51.064;7.028;2023-08-30T11:06:55;5.60;;;5.20;;
4833;SDS011;12895;51.064;7.028;2023-08-30T11:09:41;5.53;;;5.00;;
4833;SDS011;12895;51.064;7.028;2023-08-30T11:12:26;5.90;;;5.40;;
4833;SDS011;12895;51.064;7.028;2023-08-30T11:15:14;6.40;;;5.90;;
4833;SDS011;12895;51.064;7.028;2023-08-30T11:18:03;7.13;;;6.43;;
4833;SDS011;12895;51.064;7.028;2023-08-30T11:20:52;7.23;;;6.63;;
4833;SDS011;12895;51.064;7.028;2023-08-30T11:23:43;7.77;;;7.07;;
4833;SDS011;12895;51.064;7.028;2023-08-30T11:26:29;8.77;;;8.07;;
4833;SDS011;12895;51.064;7.028;2023-08-30T11:29:15;9.13;;;8.23;;
4833;SDS011;12895;51.064;7.028;2023-08-30T11:32:02;10.47;;;8.10;;
4833;SDS011;12895;51.064;7.028;2023-08-30T11:34:55;7.50;;;6.47;;
4833;SDS011;12895;51.064;7.028;2023-08-30T11:37:41;6.33;;;5.80;;
4833;SDS011;12895;51.064;7.028;2023-08-30T11:40:28;5.77;;;5.27;;
4833;SDS011;12895;51.064;7.028;2023-08-30T11:43:13;5.90;;;5.30;;
4833;SDS011;12895;51.064;7.028;2023-08-30T11:46:00;8.33;;;5.43;;
4833;SDS011;12895;51.064;7.028;2023-08-30T11:48:50;7.20;;;6.50;;
4833;SDS011;12895;51.064;7.028;2023-08-30T11:51:36;7.70;;;6.50;;
4833;SDS011;12895;51.064;7.028;2023-08-30T11:54:24;6.53;;;5.47;;
4833;SDS011;12895;51.064;7.028;2023-08-30T11:57:10;9.13;;;8.43;;
4833;SDS011;12895;51.064;7.028;2023-08-30T11:59:55;9.90;;;8.97;;
4833;SDS011;12895;51.064;7.028;2023-08-30T12:02:55;11.53;;;10.43;;
4833;SDS011;12895;51.064;7.028;2023-08-30T12:05:45;10.13;;;9.13;;
4833;SDS011;12895;51.064;7.028;2023-08-30T12:08:31;11.67;;;10.50;;
4833;SDS011;12895;51.064;7.028;2023-08-30T12:11:17;10.43;;;9.50;;
4833;SDS011;12895;51.064;7.028;2023-08-30T12:14:04;9.87;;;8.97;;
4833;SDS011;12895;51.064;7.028;2023-08-30T12:16:49;9.07;;;8.27;;
4833;SDS011;12895;51.064;7.028;2023-08-30T12:19:34;9.40;;;7.50;;
4833;SDS011;12895;51.064;7.028;2023-08-30T12:22:23;7.20;;;6.53;;
4833;SDS011;12895;51.064;7.028;2023-08-30T12:25:17;7.50;;;6.90;;
4833;SDS011;12895;51.064;7.028;2023-08-30T12:28:04;7.47;;;6.77;;
4833;SDS011;12895;51.064;7.028;2023-08-30T12:30:50;9.87;;;8.10;;
4833;SDS011;12895;51.064;7.028;2023-08-30T12:33:35;9.60;;;8.80;;
4833;SDS011;12895;51.064;7.028;2023-08-30T12:36:21;9.70;;;7.83;;
4833;SDS011;12895;51.064;7.028;2023-08-30T12:39:08;9.87;;;9.00;;
4833;SDS011;12895;51.064;7.028;2023-08-30T12:41:54;8.10;;;7.40;;
4833;SDS011;12895;51.064;7.028;2023-08-30T12:44:41;9.70;;;8.80;;
4833;SDS011;12895;51.064;7.028;2023-08-30T12:47:26;10.20;;;9.17;;
4833;SDS011;12895;51.064;7.028;2023-08-30T12:50:12;8.50;;;7.90;;
4833;SDS011;12895;51.064;7.028;2023-08-30T12:52:58;9.30;;;8.60;;
4833;SDS011;12895;51.064;7.028;2023-08-30T12:55:45;10.33;;;9.60;;
4833;SDS011;12895;51.064;7.028;2023-08-30T12:58:30;9.43;;;8.67;;
4833;SDS011;12895;51.064;7.028;2023-08-30T13:01:16;8.60;;;7.90;;
4833;SDS011;12895;51.064;7.028;2023-08-30T13:04:01;9.40;;;8.50;;
4833;SDS011;12895;51.064;7.028;2023-08-30T13:06:47;8.07;;;7.27;;
4833;SDS011;12895;51.064;7.028;2023-08-30T13:09:32;8.07;;;6.63;;
4833;SDS011;12895;51.064;7.028;2023-08-30T13:12:19;5.10;;;4.73;;
4833;SDS011;12895;51.064;7.028;2023-08-30T13:15:05;6.37;;;5.87;;
4833;SDS011;12895;51.064;7.028;2023-08-30T13:17:51;5.60;;;5.20;;
4833;SDS011;12895;51.064;7.028;2023-08-30T13:20:37;7.73;;;6.30;;
4833;SDS011;12895;51.064;7.028;2023-08-30T13:23:23;5.77;;;5.37;;
4833;SDS011;12895;51.064;7.028;2023-08-30T13:26:09;5.77;;;5.37;;
4833;SDS011;12895;51.064;7.028;2023-08-30T13:28:56;5.30;;;4.90;;
4833;SDS011;12895;51.064;7.028;2023-08-30T13:31:43;5.83;;;5.37;;
4833;SDS011;12895;51.064;7.028;2023-08-30T13:34:28;4.50;;;4.20;;
4833;SDS011;12895;51.064;7.028;2023-08-30T13:37:13;6.13;;;5.30;;
4833;SDS011;12895;51.064;7.028;2023-08-30T13:40:00;6.90;;;6.30;;
4833;SDS011;12895;51.064;7.028;2023-08-30T13:42:50;6.50;;;6.10;;
4833;SDS011;12895;51.064;7.028;2023-08-30T13:45:36;7.87;;;7.27;;
4833;SDS011;12895;51.064;7.028;2023-08-30T13:48:22;6.30;;;5.70;;
4833;SDS011;12895;51.064;7.028;2023-08-30T13:51:07;6.10;;;5.60;;
4833;SDS011;12895;51.064;7.028;2023-08-30T13:53:53;5.67;;;5.20;;
4833;SDS011;12895;51.064;7.028;2023-08-30T13:56:38;4.43;;;4.23;;
4833;SDS011;12895;51.064;7.028;2023-08-30T13:59:23;4.73;;;4.43;;
4833;SDS011;12895;51.064;7.028;2023-08-30T14:02:10;4.50;;;4.20;;
4833;SDS011;12895;51.064;7.028;2023-08-30T14:04:56;5.13;;;4.83;;
4833;SDS011;12895;51.064;7.028;2023-08-30T14:07:41;6.07;;;5.67;;
4833;SDS011;12895;51.064;7.028;2023-08-30T14:10:27;4.77;;;4.47;;
4833;SDS011;12895;51.064;7.028;2023-08-30T14:13:12;5.37;;;4.90;;
4833;SDS011;12895;51.064;7.028;2023-08-30T14:15:57;4.20;;;3.83;;
4833;SDS011;12895;51.064;7.028;2023-08-30T14:18:45;5.27;;;4.73;;
4833;SDS011;12895;51.064;7.028;2023-08-30T14:21:31;4.37;;;4.07;;
4833;SDS011;12895;51.064;7.028;2023-08-30T14:24:16;4.83;;;4.47;;
4833;SDS011;12895;51.064;7.028;2023-08-30T14:27:03;5.60;;;5.13;;
4833;SDS011;12895;51.064;7.028;2023-08-30T14:29:49;6.00;;;5.50;;
4833;SDS011;12895;51.064;7.028;2023-08-30T14:32:34;6.33;;;5.73;;
4833;SDS011;12895;51.064;7.028;2023-08-30T14:35:24;6.97;;;6.27;;
4833;SDS011;12895;51.064;7.028;2023-08-30T14:38:11;5.80;;;5.10;;
4833;SDS011;12895;51.064;7.028;2023-08-30T14:40:57;6.00;;;5.50;;
4833;SDS011;12895;51.064;7.028;2023-08-30T14:43:43;6.20;;;5.60;;
4833;SDS011;12895;51.064;7.028;2023-08-30T14:46:29;6.73;;;6.23;;
4833;SDS011;12895;51.064;7.028;2023-08-30T14:49:14;7.47;;;6.77;;
4833;SDS011;12895;51.064;7.028;2023-08-30T14:52:01;6.50;;;6.00;;
4833;SDS011;12895;51.064;7.028;2023-08-30T14:54:46;6.77;;;6.17;;
4833;SDS011;12895;51.064;7.028;2023-08-30T14:57:32;6.63;;;6.00;;
4833;SDS011;12895;51.064;7.028;2023-08-30T15:00:17;7.30;;;6.70;;
4833;SDS011;12895;51.064;7.028;2023-08-30T15:03:03;7.00;;;6.50;;
4833;SDS011;12895;51.064;7.028;2023-08-30T15:05:52;6.23;;;5.73;;
4833;SDS011;12895;51.064;7.028;2023-08-30T15:08:42;6.20;;;5.70;;
4833;SDS011;12895;51.064;7.028;2023-08-30T15:11:27;6.37;;;5.77;;
4833;SDS011;12895;51.064;7.028;2023-08-30T15:14:12;10.17;;;7.87;;
4833;SDS011;12895;51.064;7.028;2023-08-30T15:16:58;5.60;;;5.17;;
4833;SDS011;12895;51.064;7.028;2023-08-30T15:19:43;7.40;;;6.70;;
4833;SDS011;12895;51.064;7.028;2023-08-30T15:22:29;5.57;;;5.07;;
4833;SDS011;12895;51.064;7.028;2023-08-30T15:25:17;5.67;;;5.27;;
4833;SDS011;12895;51.064;7.028;2023-08-30T15:28:03;5.77;;;5.37;;
4833;SDS011;12895;51.064;7.028;2023-08-30T15:30:49;5.50;;;5.10;;
4833;SDS011;12895;51.064;7.028;2023-08-30T15:33:35;4.60;;;4.20;;
4833;SDS011;12895;51.064;7.028;2023-08-30T15:36:21;4.57;;;4.27;;
4833;SDS011;12895;51.064;7.028;2023-08-30T15:39:06;4.30;;;4.00;;
4833;SDS011;12895;51.064;7.028;2023-08-30T15:41:54;4.80;;;4.50;;
4833;SDS011;12895;51.064;7.028;2023-08-30T15:44:39;4.53;;;4.23;;
4833;SDS011;12895;51.064;7.028;2023-08-30T15:47:24;4.30;;;3.50;;
4833;SDS011;12895;51.064;7.028;2023-08-30T15:50:10;3.43;;;3.23;;
4833;SDS011;12895;51.064;7.028;2023-08-30T15:52:55;3.83;;;3.63;;
4833;SDS011;12895;51.064;7.028;2023-08-30T15:55:40;3.40;;;3.20;;
4833;SDS011;12895;51.064;7.028;2023-08-30T15:58:27;3.47;;;3.17;;
4833;SDS011;12895;51.064;7.028;2023-08-30T16:01:12;3.70;;;3.50;;
4833;SDS011;12895;51.064;7.028;2023-08-30T16:03:58;3.80;;;3.50;;
4833;SDS011;12895;51.064;7.028;2023-08-30T16:06:44;3.47;;;3.27;;
4833;SDS011;12895;51.064;7.028;2023-08-30T16:09:29;4.10;;;3.80;;
4833;SDS011;12895;51.064;7.028;2023-08-30T16:12:14;3.40;;;3.20;;
4833;SDS011;12895;51.064;7.028;2023-08-30T16:15:01;4.00;;;3.70;;
4833;SDS011;12895;51.064;7.028;2023-08-30T16:17:47;5.47;;;3.20;;
4833;SDS011;12895;51.064;7.028;2023-08-30T16:20:33;4.17;;;3.70;;
4833;SDS011;12895;51.064;7.028;2023-08-30T16:23:18;5.00;;;4.60;;
4833;SDS011;12895;51.064;7.028;2023-08-30T16:26:04;4.20;;;3.90;;
4833;SDS011;12895;51.064;7.028;2023-08-30T16:28:50;4.90;;;4.50;;
4833;SDS011;12895;51.064;7.028;2023-08-30T16:31:36;5.40;;;5.00;;
4833;SDS011;12895;51.064;7.028;2023-08-30T16:34:22;5.23;;;4.83;;
4833;SDS011;12895;51.064;7.028;2023-08-30T16:37:07;5.37;;;4.93;;
4833;SDS011;12895;51.064;7.028;2023-08-30T16:39:53;5.70;;;4.63;;
4833;SDS011;12895;51.064;7.028;2023-08-30T16:42:38;4.93;;;4.63;;
4833;SDS011;12895;51.064;7.028;2023-08-30T16:45:24;5.53;;;5.17;;
4833;SDS011;12895;51.064;7.028;2023-08-30T16:48:13;4.93;;;4.23;;
4833;SDS011;12895;51.064;7.028;2023-08-30T16:50:59;5.53;;;5.17;;
4833;SDS011;12895;51.064;7.028;2023-08-30T16:53:44;4.80;;;4.50;;